sensor_id;sensor_type;location;lat;lon;timestamp;temperature;humidity
71188;DHT22;58893;53.130;8.158;2023-04-06T00:01:31;8.00;66.30
71188;DHT22;58893;53.130;8.158;2023-04-06T00:03:57;8.00;65.80
71188;DHT22;58893;53.130;8.158;2023-04-06T00:06:23;7.90;65.40
71188;DHT22;58893;53.130;8.158;2023-04-06T00:08:49;8.00;65.40
71188;DHT22;58893;53.130;8.158;2023-04-06T00:11:15;7.90;65.70
71188;DHT22;58893;53.130;8.158;2023-04-06T00:13:42;7.90;66.70
71188;DHT22;58893;53.130;8.158;2023-04-06T00:16:07;7.90;66.80
71188;DHT22;58893;53.130;8.158;2023-04-06T00:18:33;7.90;66.60
71188;DHT22;58893;53.130;8.158;2023-04-06T00:20:59;7.90;66.30
71188;DHT22;58893;53.130;8.158;2023-04-06T00:23:25;7.90;65.90
71188;DHT22;58893;53.130;8.158;2023-04-06T00:25:50;7.90;65.70
71188;DHT22;58893;53.130;8.158;2023-04-06T00:28:16;7.80;65.40
71188;DHT22;58893;53.130;8.158;2023-04-06T00:30:42;7.80;65.00
71188;DHT22;58893;53.130;8.158;2023-04-06T00:33:08;7.70;64.60
71188;DHT22;58893;53.130;8.158;2023-04-06T00:35:34;7.60;64.40
71188;DHT22;58893;53.130;8.158;2023-04-06T00:38:00;7.50;65.50
71188;DHT22;58893;53.130;8.158;2023-04-06T00:40:25;7.50;63.90
71188;DHT22;58893;53.130;8.158;2023-04-06T00:42:54;7.50;63.80
71188;DHT22;58893;53.130;8.158;2023-04-06T00:45:20;7.40;63.60
71188;DHT22;58893;53.130;8.158;2023-04-06T00:47:45;7.30;63.60
71188;DHT22;58893;53.130;8.158;2023-04-06T00:50:11;7.30;63.60
71188;DHT22;58893;53.130;8.158;2023-04-06T00:52:37;7.20;63.60
71188;DHT22;58893;53.130;8.158;2023-04-06T00:55:03;7.10;63.70
71188;DHT22;58893;53.130;8.158;2023-04-06T00:57:29;7.10;63.90
71188;DHT22;58893;53.130;8.158;2023-04-06T00:59:55;7.00;64.20
71188;DHT22;58893;53.130;8.158;2023-04-06T01:02:21;7.00;64.30
71188;DHT22;58893;53.130;8.158;2023-04-06T01:04:47;6.90;64.60
71188;DHT22;58893;53.130;8.158;2023-04-06T01:07:12;6.90;64.90
71188;DHT22;58893;53.130;8.158;2023-04-06T01:09:38;6.90;65.30
71188;DHT22;58893;53.130;8.158;2023-04-06T01:12:06;6.80;65.70
71188;DHT22;58893;53.130;8.158;2023-04-06T01:14:32;6.80;66.00
71188;DHT22;58893;53.130;8.158;2023-04-06T01:16:58;6.80;66.30
71188;DHT22;58893;53.130;8.158;2023-04-06T01:19:26;6.80;66.50
71188;DHT22;58893;53.130;8.158;2023-04-06T01:21:52;6.80;66.70
71188;DHT22;58893;53.130;8.158;2023-04-06T01:24:19;6.80;66.90
71188;DHT22;58893;53.130;8.158;2023-04-06T01:26:45;6.80;67.00
71188;DHT22;58893;53.130;8.158;2023-04-06T01:29:11;6.80;70.10
71188;DHT22;58893;53.130;8.158;2023-04-06T01:31:37;6.80;67.20
71188;DHT22;58893;53.130;8.158;2023-04-06T01:34:03;6.80;67.20
71188;DHT22;58893;53.130;8.158;2023-04-06T01:36:29;6.80;67.40
71188;DHT22;58893;53.130;8.158;2023-04-06T01:38:55;6.80;67.90
71188;DHT22;58893;53.130;8.158;2023-04-06T01:41:20;6.80;67.90
71188;DHT22;58893;53.130;8.158;2023-04-06T01:43:48;6.80;67.70
71188;DHT22;58893;53.130;8.158;2023-04-06T01:46:14;6.80;68.00
71188;DHT22;58893;53.130;8.158;2023-04-06T01:48:40;6.80;68.30
71188;DHT22;58893;53.130;8.158;2023-04-06T01:51:06;6.80;68.60
71188;DHT22;58893;53.130;8.158;2023-04-06T01:53:32;6.90;68.80
71188;DHT22;58893;53.130;8.158;2023-04-06T01:55:57;6.90;69.00
71188;DHT22;58893;53.130;8.158;2023-04-06T01:58:23;6.90;69.10
71188;DHT22;58893;53.130;8.158;2023-04-06T02:00:49;6.80;69.00
71188;DHT22;58893;53.130;8.158;2023-04-06T02:03:14;6.80;70.10
71188;DHT22;58893;53.130;8.158;2023-04-06T02:05:40;6.90;69.20
71188;DHT22;58893;53.130;8.158;2023-04-06T02:08:06;6.90;69.00
71188;DHT22;58893;53.130;8.158;2023-04-06T02:10:33;6.80;68.90
71188;DHT22;58893;53.130;8.158;2023-04-06T02:12:58;6.90;68.90
71188;DHT22;58893;53.130;8.158;2023-04-06T02:15:24;6.90;68.90
71188;DHT22;58893;53.130;8.158;2023-04-06T02:17:51;6.80;68.70
71188;DHT22;58893;53.130;8.158;2023-04-06T02:20:17;6.90;68.80
71188;DHT22;58893;53.130;8.158;2023-04-06T02:22:42;6.80;68.70
71188;DHT22;58893;53.130;8.158;2023-04-06T02:25:08;6.90;68.70
71188;DHT22;58893;53.130;8.158;2023-04-06T02:27:34;6.80;68.50
71188;DHT22;58893;53.130;8.158;2023-04-06T02:30:00;6.90;68.40
71188;DHT22;58893;53.130;8.158;2023-04-06T02:32:26;6.80;68.20
71188;DHT22;58893;53.130;8.158;2023-04-06T02:34:52;6.90;68.20
71188;DHT22;58893;53.130;8.158;2023-04-06T02:37:17;6.90;68.10
71188;DHT22;58893;53.130;8.158;2023-04-06T02:39:43;6.80;68.10
71188;DHT22;58893;53.130;8.158;2023-04-06T02:42:09;6.80;67.80
71188;DHT22;58893;53.130;8.158;2023-04-06T02:44:34;6.80;67.90
71188;DHT22;58893;53.130;8.158;2023-04-06T02:47:00;6.80;67.80
71188;DHT22;58893;53.130;8.158;2023-04-06T02:49:26;6.80;67.80
71188;DHT22;58893;53.130;8.158;2023-04-06T02:51:51;6.80;67.80
71188;DHT22;58893;53.130;8.158;2023-04-06T02:54:17;6.80;67.80
71188;DHT22;58893;53.130;8.158;2023-04-06T02:56:43;6.70;67.50
71188;DHT22;58893;53.130;8.158;2023-04-06T02:59:09;6.70;67.50
71188;DHT22;58893;53.130;8.158;2023-04-06T03:01:35;6.70;67.50
71188;DHT22;58893;53.130;8.158;2023-04-06T03:04:01;6.70;67.50
71188;DHT22;58893;53.130;8.158;2023-04-06T03:06:27;6.70;67.50
71188;DHT22;58893;53.130;8.158;2023-04-06T03:08:52;6.70;67.40
71188;DHT22;58893;53.130;8.158;2023-04-06T03:11:18;6.60;67.10
71188;DHT22;58893;53.130;8.158;2023-04-06T03:13:44;6.60;67.00
71188;DHT22;58893;53.130;8.158;2023-04-06T03:16:10;6.60;66.80
71188;DHT22;58893;53.130;8.158;2023-04-06T03:18:36;6.50;66.80
71188;DHT22;58893;53.130;8.158;2023-04-06T03:21:01;6.50;66.90
71188;DHT22;58893;53.130;8.158;2023-04-06T03:23:27;6.50;67.00
71188;DHT22;58893;53.130;8.158;2023-04-06T03:25:53;6.40;67.10
71188;DHT22;58893;53.130;8.158;2023-04-06T03:28:18;6.40;67.30
71188;DHT22;58893;53.130;8.158;2023-04-06T03:30:45;6.40;67.50
71188;DHT22;58893;53.130;8.158;2023-04-06T03:33:11;6.40;67.60
71188;DHT22;58893;53.130;8.158;2023-04-06T03:35:36;6.40;67.60
71188;DHT22;58893;53.130;8.158;2023-04-06T03:38:03;6.40;67.60
71188;DHT22;58893;53.130;8.158;2023-04-06T03:40:29;6.40;67.60
71188;DHT22;58893;53.130;8.158;2023-04-06T03:42:55;6.40;67.50
71188;DHT22;58893;53.130;8.158;2023-04-06T03:45:21;6.40;67.30
71188;DHT22;58893;53.130;8.158;2023-04-06T03:47:46;6.30;67.10
71188;DHT22;58893;53.130;8.158;2023-04-06T03:50:12;6.30;67.00
71188;DHT22;58893;53.130;8.158;2023-04-06T03:52:38;6.30;67.10
71188;DHT22;58893;53.130;8.158;2023-04-06T03:55:04;6.30;67.10
71188;DHT22;58893;53.130;8.158;2023-04-06T03:57:30;6.30;67.10
71188;DHT22;58893;53.130;8.158;2023-04-06T03:59:55;6.30;67.00
71188;DHT22;58893;53.130;8.158;2023-04-06T04:02:21;6.20;66.80
71188;DHT22;58893;53.130;8.158;2023-04-06T04:04:47;6.20;66.70
71188;DHT22;58893;53.130;8.158;2023-04-06T04:07:12;6.20;66.70
71188;DHT22;58893;53.130;8.158;2023-04-06T04:09:38;6.20;66.70
71188;DHT22;58893;53.130;8.158;2023-04-06T04:12:04;6.10;66.50
71188;DHT22;58893;53.130;8.158;2023-04-06T04:14:29;6.10;66.50
71188;DHT22;58893;53.130;8.158;2023-04-06T04:16:55;6.10;66.60
71188;DHT22;58893;53.130;8.158;2023-04-06T04:19:21;6.00;66.70
71188;DHT22;58893;53.130;8.158;2023-04-06T04:21:47;6.00;66.90
71188;DHT22;58893;53.130;8.158;2023-04-06T04:24:13;6.00;67.00
71188;DHT22;58893;53.130;8.158;2023-04-06T04:26:39;6.00;67.10
71188;DHT22;58893;53.130;8.158;2023-04-06T04:29:05;5.90;67.20
71188;DHT22;58893;53.130;8.158;2023-04-06T04:31:31;5.90;67.30
71188;DHT22;58893;53.130;8.158;2023-04-06T04:33:59;5.90;67.30
71188;DHT22;58893;53.130;8.158;2023-04-06T04:36:25;5.90;67.30
71188;DHT22;58893;53.130;8.158;2023-04-06T04:38:54;5.90;67.50
71188;DHT22;58893;53.130;8.158;2023-04-06T04:41:20;5.90;67.30
71188;DHT22;58893;53.130;8.158;2023-04-06T04:43:46;5.80;67.10
71188;DHT22;58893;53.130;8.158;2023-04-06T04:46:11;5.80;66.80
71188;DHT22;58893;53.130;8.158;2023-04-06T04:48:37;5.90;66.80
71188;DHT22;58893;53.130;8.158;2023-04-06T04:51:04;5.80;66.70
71188;DHT22;58893;53.130;8.158;2023-04-06T04:53:29;5.80;66.70
71188;DHT22;58893;53.130;8.158;2023-04-06T04:55:55;5.80;66.60
71188;DHT22;58893;53.130;8.158;2023-04-06T04:58:21;5.80;66.50
71188;DHT22;58893;53.130;8.158;2023-04-06T05:00:46;5.80;66.40
71188;DHT22;58893;53.130;8.158;2023-04-06T05:03:23;5.80;66.50
71188;DHT22;58893;53.130;8.158;2023-04-06T05:05:49;5.70;66.60
71188;DHT22;58893;53.130;8.158;2023-04-06T05:08:15;5.70;66.80
71188;DHT22;58893;53.130;8.158;2023-04-06T05:10:41;5.70;66.80
71188;DHT22;58893;53.130;8.158;2023-04-06T05:13:10;5.70;66.80
71188;DHT22;58893;53.130;8.158;2023-04-06T05:15:36;5.80;66.60
71188;DHT22;58893;53.130;8.158;2023-04-06T05:18:06;5.80;66.40
71188;DHT22;58893;53.130;8.158;2023-04-06T05:20:32;5.80;66.30
71188;DHT22;58893;53.130;8.158;2023-04-06T05:22:58;5.80;66.10
71188;DHT22;58893;53.130;8.158;2023-04-06T05:25:24;5.80;65.90
71188;DHT22;58893;53.130;8.158;2023-04-06T05:27:49;5.80;65.70
71188;DHT22;58893;53.130;8.158;2023-04-06T05:30:15;5.90;65.60
71188;DHT22;58893;53.130;8.158;2023-04-06T05:32:41;5.90;65.40
71188;DHT22;58893;53.130;8.158;2023-04-06T05:35:08;5.90;65.50
71188;DHT22;58893;53.130;8.158;2023-04-06T05:37:35;6.10;65.80
71188;DHT22;58893;53.130;8.158;2023-04-06T05:40:00;6.20;65.70
71188;DHT22;58893;53.130;8.158;2023-04-06T05:42:26;6.50;65.20
71188;DHT22;58893;53.130;8.158;2023-04-06T05:44:52;6.80;64.60
71188;DHT22;58893;53.130;8.158;2023-04-06T05:47:18;7.10;63.50
71188;DHT22;58893;53.130;8.158;2023-04-06T05:49:44;7.50;62.10
71188;DHT22;58893;53.130;8.158;2023-04-06T05:52:09;7.90;61.20
71188;DHT22;58893;53.130;8.158;2023-04-06T05:54:36;8.20;59.70
71188;DHT22;58893;53.130;8.158;2023-04-06T05:57:03;8.40;58.30
71188;DHT22;58893;53.130;8.158;2023-04-06T05:59:30;8.60;57.20
71188;DHT22;58893;53.130;8.158;2023-04-06T06:01:56;8.80;56.40
71188;DHT22;58893;53.130;8.158;2023-04-06T06:04:22;8.80;55.30
71188;DHT22;58893;53.130;8.158;2023-04-06T06:06:47;8.90;54.90
71188;DHT22;58893;53.130;8.158;2023-04-06T06:09:13;9.00;54.90
71188;DHT22;58893;53.130;8.158;2023-04-06T06:11:39;9.10;54.40
71188;DHT22;58893;53.130;8.158;2023-04-06T06:14:05;9.20;53.90
71188;DHT22;58893;53.130;8.158;2023-04-06T06:16:30;9.20;53.40
71188;DHT22;58893;53.130;8.158;2023-04-06T06:18:56;9.30;53.10
71188;DHT22;58893;53.130;8.158;2023-04-06T06:21:22;9.40;52.50
71188;DHT22;58893;53.130;8.158;2023-04-06T06:23:47;9.50;52.00
71188;DHT22;58893;53.130;8.158;2023-04-06T06:26:16;9.50;51.80
71188;DHT22;58893;53.130;8.158;2023-04-06T06:28:42;9.60;51.40
71188;DHT22;58893;53.130;8.158;2023-04-06T06:31:08;9.70;51.10
71188;DHT22;58893;53.130;8.158;2023-04-06T06:33:33;9.70;51.10
71188;DHT22;58893;53.130;8.158;2023-04-06T06:35:59;9.80;50.90
71188;DHT22;58893;53.130;8.158;2023-04-06T06:38:25;9.90;50.40
71188;DHT22;58893;53.130;8.158;2023-04-06T06:40:52;9.90;50.00
71188;DHT22;58893;53.130;8.158;2023-04-06T06:43:17;10.00;49.50
71188;DHT22;58893;53.130;8.158;2023-04-06T06:45:44;10.00;48.90
71188;DHT22;58893;53.130;8.158;2023-04-06T06:48:09;10.00;48.60
71188;DHT22;58893;53.130;8.158;2023-04-06T06:50:36;10.00;48.40
71188;DHT22;58893;53.130;8.158;2023-04-06T06:53:01;10.00;48.10
71188;DHT22;58893;53.130;8.158;2023-04-06T06:55:27;10.00;48.00
71188;DHT22;58893;53.130;8.158;2023-04-06T06:57:53;10.00;47.90
71188;DHT22;58893;53.130;8.158;2023-04-06T07:00:19;10.00;47.40
71188;DHT22;58893;53.130;8.158;2023-04-06T07:02:48;9.90;48.00
71188;DHT22;58893;53.130;8.158;2023-04-06T07:05:15;9.90;47.90
71188;DHT22;58893;53.130;8.158;2023-04-06T07:07:41;9.80;48.40
71188;DHT22;58893;53.130;8.158;2023-04-06T07:10:07;9.80;48.40
71188;DHT22;58893;53.130;8.158;2023-04-06T07:12:33;9.80;48.60
71188;DHT22;58893;53.130;8.158;2023-04-06T07:14:59;9.80;48.00
71188;DHT22;58893;53.130;8.158;2023-04-06T07:17:24;9.80;48.00
71188;DHT22;58893;53.130;8.158;2023-04-06T07:19:50;9.80;48.20
71188;DHT22;58893;53.130;8.158;2023-04-06T07:22:16;9.90;47.70
71188;DHT22;58893;53.130;8.158;2023-04-06T07:24:42;9.90;47.40
71188;DHT22;58893;53.130;8.158;2023-04-06T07:27:07;9.90;47.90
71188;DHT22;58893;53.130;8.158;2023-04-06T07:29:33;9.90;47.30
71188;DHT22;58893;53.130;8.158;2023-04-06T07:31:59;9.90;47.10
71188;DHT22;58893;53.130;8.158;2023-04-06T07:34:24;9.90;46.90
71188;DHT22;58893;53.130;8.158;2023-04-06T07:36:50;9.90;47.20
71188;DHT22;58893;53.130;8.158;2023-04-06T07:39:18;9.90;47.50
71188;DHT22;58893;53.130;8.158;2023-04-06T07:41:43;10.00;46.70
71188;DHT22;58893;53.130;8.158;2023-04-06T07:44:09;10.10;46.90
71188;DHT22;58893;53.130;8.158;2023-04-06T07:46:35;10.10;47.20
71188;DHT22;58893;53.130;8.158;2023-04-06T07:49:01;10.20;47.20
71188;DHT22;58893;53.130;8.158;2023-04-06T07:51:27;10.30;47.20
71188;DHT22;58893;53.130;8.158;2023-04-06T07:53:53;10.40;46.60
71188;DHT22;58893;53.130;8.158;2023-04-06T07:56:19;10.50;46.70
71188;DHT22;58893;53.130;8.158;2023-04-06T07:58:46;10.60;46.30
71188;DHT22;58893;53.130;8.158;2023-04-06T08:01:11;10.60;46.00
71188;DHT22;58893;53.130;8.158;2023-04-06T08:03:37;10.70;45.90
71188;DHT22;58893;53.130;8.158;2023-04-06T08:06:03;10.70;46.30
71188;DHT22;58893;53.130;8.158;2023-04-06T08:08:29;10.90;46.50
71188;DHT22;58893;53.130;8.158;2023-04-06T08:10:54;10.90;46.30
71188;DHT22;58893;53.130;8.158;2023-04-06T08:13:20;11.00;46.30
71188;DHT22;58893;53.130;8.158;2023-04-06T08:15:46;11.10;45.60
71188;DHT22;58893;53.130;8.158;2023-04-06T08:18:12;11.20;44.90
71188;DHT22;58893;53.130;8.158;2023-04-06T08:20:39;11.30;44.60
71188;DHT22;58893;53.130;8.158;2023-04-06T08:23:04;11.40;44.80
71188;DHT22;58893;53.130;8.158;2023-04-06T08:25:33;11.50;44.40
71188;DHT22;58893;53.130;8.158;2023-04-06T08:27:59;11.60;44.30
71188;DHT22;58893;53.130;8.158;2023-04-06T08:30:24;11.60;43.80
71188;DHT22;58893;53.130;8.158;2023-04-06T08:32:50;11.80;44.20
71188;DHT22;58893;53.130;8.158;2023-04-06T08:35:16;11.90;44.70
71188;DHT22;58893;53.130;8.158;2023-04-06T08:37:41;12.00;44.60
71188;DHT22;58893;53.130;8.158;2023-04-06T08:40:07;12.10;44.30
71188;DHT22;58893;53.130;8.158;2023-04-06T08:42:44;12.20;44.30
71188;DHT22;58893;53.130;8.158;2023-04-06T08:45:14;12.20;44.50
71188;DHT22;58893;53.130;8.158;2023-04-06T08:47:41;12.30;44.30
71188;DHT22;58893;53.130;8.158;2023-04-06T08:50:09;12.40;44.10
71188;DHT22;58893;53.130;8.158;2023-04-06T08:52:37;12.40;43.80
71188;DHT22;58893;53.130;8.158;2023-04-06T08:55:03;12.50;43.70
71188;DHT22;58893;53.130;8.158;2023-04-06T08:57:31;12.60;44.30
71188;DHT22;58893;53.130;8.158;2023-04-06T08:59:57;12.60;44.10
71188;DHT22;58893;53.130;8.158;2023-04-06T09:02:26;12.60;44.10
71188;DHT22;58893;53.130;8.158;2023-04-06T09:04:53;12.60;43.70
71188;DHT22;58893;53.130;8.158;2023-04-06T09:07:19;12.60;43.50
71188;DHT22;58893;53.130;8.158;2023-04-06T09:09:45;12.70;44.00
71188;DHT22;58893;53.130;8.158;2023-04-06T09:12:27;12.70;43.80
71188;DHT22;58893;53.130;8.158;2023-04-06T09:14:53;12.70;43.90
71188;DHT22;58893;53.130;8.158;2023-04-06T09:17:30;12.70;43.50
71188;DHT22;58893;53.130;8.158;2023-04-06T09:19:58;12.70;43.70
71188;DHT22;58893;53.130;8.158;2023-04-06T09:22:23;12.70;43.10
71188;DHT22;58893;53.130;8.158;2023-04-06T09:24:54;12.70;42.30
71188;DHT22;58893;53.130;8.158;2023-04-06T09:27:34;12.60;41.40
71188;DHT22;58893;53.130;8.158;2023-04-06T09:30:10;12.70;41.40
71188;DHT22;58893;53.130;8.158;2023-04-06T09:32:52;12.60;41.30
71188;DHT22;58893;53.130;8.158;2023-04-06T09:35:19;12.60;42.10
71188;DHT22;58893;53.130;8.158;2023-04-06T09:37:49;12.50;41.40
71188;DHT22;58893;53.130;8.158;2023-04-06T09:40:15;12.60;41.70
71188;DHT22;58893;53.130;8.158;2023-04-06T09:42:45;12.50;42.60
71188;DHT22;58893;53.130;8.158;2023-04-06T09:45:12;12.50;42.50
71188;DHT22;58893;53.130;8.158;2023-04-06T09:47:39;12.50;42.20
71188;DHT22;58893;53.130;8.158;2023-04-06T09:50:07;12.50;42.00
71188;DHT22;58893;53.130;8.158;2023-04-06T09:52:37;12.50;41.80
71188;DHT22;58893;53.130;8.158;2023-04-06T09:55:05;12.50;41.20
71188;DHT22;58893;53.130;8.158;2023-04-06T09:57:45;12.50;41.40
71188;DHT22;58893;53.130;8.158;2023-04-06T10:00:13;12.50;41.10
71188;DHT22;58893;53.130;8.158;2023-04-06T10:08:09;12.50;42.30
71188;DHT22;58893;53.130;8.158;2023-04-06T10:10:36;12.50;42.10
71188;DHT22;58893;53.130;8.158;2023-04-06T10:13:02;12.50;41.60
71188;DHT22;58893;53.130;8.158;2023-04-06T10:15:29;12.60;40.80
71188;DHT22;58893;53.130;8.158;2023-04-06T10:17:56;12.60;41.00
71188;DHT22;58893;53.130;8.158;2023-04-06T10:20:43;12.60;41.10
71188;DHT22;58893;53.130;8.158;2023-04-06T10:25:58;12.70;42.00
71188;DHT22;58893;53.130;8.158;2023-04-06T10:28:25;12.70;42.30
71188;DHT22;58893;53.130;8.158;2023-04-06T10:30:58;12.80;42.50
71188;DHT22;58893;53.130;8.158;2023-04-06T10:33:24;12.90;42.80
71188;DHT22;58893;53.130;8.158;2023-04-06T10:35:50;12.90;42.60
71188;DHT22;58893;53.130;8.158;2023-04-06T10:38:16;13.00;42.50
71188;DHT22;58893;53.130;8.158;2023-04-06T10:40:46;13.10;42.80
71188;DHT22;58893;53.130;8.158;2023-04-06T10:43:22;13.20;42.60
71188;DHT22;58893;53.130;8.158;2023-04-06T10:45:59;13.30;42.40
71188;DHT22;58893;53.130;8.158;2023-04-06T10:48:37;13.30;41.70
71188;DHT22;58893;53.130;8.158;2023-04-06T10:51:08;13.40;40.90
71188;DHT22;58893;53.130;8.158;2023-04-06T10:53:34;13.50;41.50
71188;DHT22;58893;53.130;8.158;2023-04-06T10:56:00;13.60;42.00
71188;DHT22;58893;53.130;8.158;2023-04-06T10:58:27;13.70;41.80
71188;DHT22;58893;53.130;8.158;2023-04-06T11:00:54;13.80;40.90
71188;DHT22;58893;53.130;8.158;2023-04-06T11:03:20;13.80;40.40
71188;DHT22;58893;53.130;8.158;2023-04-06T11:05:50;13.90;39.90
71188;DHT22;58893;53.130;8.158;2023-04-06T11:08:31;14.00;39.80
71188;DHT22;58893;53.130;8.158;2023-04-06T11:11:10;14.10;39.60
71188;DHT22;58893;53.130;8.158;2023-04-06T11:16:27;14.20;37.80
71188;DHT22;58893;53.130;8.158;2023-04-06T11:18:59;14.30;38.30
71188;DHT22;58893;53.130;8.158;2023-04-06T11:21:35;14.30;37.90
71188;DHT22;58893;53.130;8.158;2023-04-06T11:24:12;14.40;38.50
71188;DHT22;58893;53.130;8.158;2023-04-06T11:26:48;14.40;38.50
71188;DHT22;58893;53.130;8.158;2023-04-06T11:29:16;14.50;37.20
71188;DHT22;58893;53.130;8.158;2023-04-06T11:31:50;14.50;36.90
71188;DHT22;58893;53.130;8.158;2023-04-06T11:34:21;14.50;36.80
71188;DHT22;58893;53.130;8.158;2023-04-06T11:36:57;14.50;36.90
71188;DHT22;58893;53.130;8.158;2023-04-06T11:39:25;14.60;37.50
71188;DHT22;58893;53.130;8.158;2023-04-06T11:41:53;14.60;37.70
71188;DHT22;58893;53.130;8.158;2023-04-06T11:47:09;14.60;36.60
71188;DHT22;58893;53.130;8.158;2023-04-06T11:49:40;14.60;37.00
71188;DHT22;58893;53.130;8.158;2023-04-06T11:52:22;14.70;36.10
71188;DHT22;58893;53.130;8.158;2023-04-06T11:54:49;14.70;35.70
71188;DHT22;58893;53.130;8.158;2023-04-06T11:57:17;14.70;36.50
71188;DHT22;58893;53.130;8.158;2023-04-06T11:59:43;14.70;35.90
71188;DHT22;58893;53.130;8.158;2023-04-06T12:02:10;14.80;35.60
71188;DHT22;58893;53.130;8.158;2023-04-06T12:04:36;14.80;36.10
71188;DHT22;58893;53.130;8.158;2023-04-06T12:07:02;14.80;36.20
71188;DHT22;58893;53.130;8.158;2023-04-06T12:09:28;14.90;36.40
71188;DHT22;58893;53.130;8.158;2023-04-06T12:11:54;14.90;36.50
71188;DHT22;58893;53.130;8.158;2023-04-06T12:14:21;14.90;37.10
71188;DHT22;58893;53.130;8.158;2023-04-06T12:16:46;15.00;37.40
71188;DHT22;58893;53.130;8.158;2023-04-06T12:19:12;15.00;37.20
71188;DHT22;58893;53.130;8.158;2023-04-06T12:21:38;15.10;37.90
71188;DHT22;58893;53.130;8.158;2023-04-06T12:24:07;15.10;37.90
71188;DHT22;58893;53.130;8.158;2023-04-06T12:26:32;15.20;36.70
71188;DHT22;58893;53.130;8.158;2023-04-06T12:28:59;15.20;37.00
71188;DHT22;58893;53.130;8.158;2023-04-06T12:31:32;15.20;37.00
71188;DHT22;58893;53.130;8.158;2023-04-06T12:33:58;15.30;37.20
71188;DHT22;58893;53.130;8.158;2023-04-06T12:36:23;15.30;36.90
71188;DHT22;58893;53.130;8.158;2023-04-06T12:38:50;15.30;36.90
71188;DHT22;58893;53.130;8.158;2023-04-06T12:41:17;15.40;36.80
71188;DHT22;58893;53.130;8.158;2023-04-06T12:43:43;15.40;36.70
71188;DHT22;58893;53.130;8.158;2023-04-06T12:46:09;15.40;35.70
71188;DHT22;58893;53.130;8.158;2023-04-06T12:48:35;15.40;35.20
71188;DHT22;58893;53.130;8.158;2023-04-06T12:51:03;15.30;35.30
71188;DHT22;58893;53.130;8.158;2023-04-06T12:53:30;15.30;35.60
71188;DHT22;58893;53.130;8.158;2023-04-06T12:55:57;15.30;35.70
71188;DHT22;58893;53.130;8.158;2023-04-06T12:58:23;15.30;35.30
71188;DHT22;58893;53.130;8.158;2023-04-06T13:00:50;15.30;35.70
71188;DHT22;58893;53.130;8.158;2023-04-06T13:03:17;15.30;35.60
71188;DHT22;58893;53.130;8.158;2023-04-06T13:05:46;15.30;35.80
71188;DHT22;58893;53.130;8.158;2023-04-06T13:08:13;15.20;36.30
71188;DHT22;58893;53.130;8.158;2023-04-06T13:10:44;15.30;35.40
71188;DHT22;58893;53.130;8.158;2023-04-06T13:13:09;15.20;34.70
71188;DHT22;58893;53.130;8.158;2023-04-06T13:15:36;15.20;34.80
71188;DHT22;58893;53.130;8.158;2023-04-06T13:18:02;15.20;35.50
71188;DHT22;58893;53.130;8.158;2023-04-06T13:20:28;15.20;36.60
71188;DHT22;58893;53.130;8.158;2023-04-06T13:22:54;15.20;36.60
71188;DHT22;58893;53.130;8.158;2023-04-06T13:25:20;15.20;35.60
71188;DHT22;58893;53.130;8.158;2023-04-06T13:27:45;15.20;35.20
71188;DHT22;58893;53.130;8.158;2023-04-06T13:30:14;15.10;35.40
71188;DHT22;58893;53.130;8.158;2023-04-06T13:32:40;15.10;35.40
71188;DHT22;58893;53.130;8.158;2023-04-06T13:35:06;15.10;35.90
71188;DHT22;58893;53.130;8.158;2023-04-06T13:37:33;15.00;35.70
71188;DHT22;58893;53.130;8.158;2023-04-06T13:39:58;15.00;35.80
71188;DHT22;58893;53.130;8.158;2023-04-06T13:42:24;15.00;36.50
71188;DHT22;58893;53.130;8.158;2023-04-06T13:44:50;14.90;36.40
71188;DHT22;58893;53.130;8.158;2023-04-06T13:47:17;14.90;36.50
71188;DHT22;58893;53.130;8.158;2023-04-06T13:49:43;14.90;36.80
71188;DHT22;58893;53.130;8.158;2023-04-06T13:52:09;14.90;37.00
71188;DHT22;58893;53.130;8.158;2023-04-06T13:54:35;14.90;36.60
71188;DHT22;58893;53.130;8.158;2023-04-06T13:57:01;14.90;36.70
71188;DHT22;58893;53.130;8.158;2023-04-06T13:59:37;14.90;35.40
71188;DHT22;58893;53.130;8.158;2023-04-06T14:02:04;14.90;36.20
71188;DHT22;58893;53.130;8.158;2023-04-06T14:04:30;14.90;36.80
71188;DHT22;58893;53.130;8.158;2023-04-06T14:06:57;14.90;37.40
71188;DHT22;58893;53.130;8.158;2023-04-06T14:09:22;15.00;36.80
71188;DHT22;58893;53.130;8.158;2023-04-06T14:11:49;15.00;36.30
71188;DHT22;58893;53.130;8.158;2023-04-06T14:14:15;15.00;36.20
71188;DHT22;58893;53.130;8.158;2023-04-06T14:16:41;15.00;36.70
71188;DHT22;58893;53.130;8.158;2023-04-06T14:19:10;15.00;37.20
71188;DHT22;58893;53.130;8.158;2023-04-06T14:21:40;15.00;37.50
71188;DHT22;58893;53.130;8.158;2023-04-06T14:24:07;15.10;37.40
71188;DHT22;58893;53.130;8.158;2023-04-06T14:26:34;15.10;36.70
71188;DHT22;58893;53.130;8.158;2023-04-06T14:29:00;15.10;36.50
71188;DHT22;58893;53.130;8.158;2023-04-06T14:31:26;15.10;36.80
71188;DHT22;58893;53.130;8.158;2023-04-06T14:33:52;15.10;37.00
71188;DHT22;58893;53.130;8.158;2023-04-06T14:36:18;15.10;37.60
71188;DHT22;58893;53.130;8.158;2023-04-06T14:38:43;15.20;38.10
71188;DHT22;58893;53.130;8.158;2023-04-06T14:41:16;15.20;38.70
71188;DHT22;58893;53.130;8.158;2023-04-06T14:43:42;15.20;38.80
71188;DHT22;58893;53.130;8.158;2023-04-06T14:46:08;15.30;37.30
71188;DHT22;58893;53.130;8.158;2023-04-06T14:48:34;15.30;36.40
71188;DHT22;58893;53.130;8.158;2023-04-06T14:51:00;15.30;35.30
71188;DHT22;58893;53.130;8.158;2023-04-06T14:53:26;15.30;34.80
71188;DHT22;58893;53.130;8.158;2023-04-06T14:55:53;15.30;34.60
71188;DHT22;58893;53.130;8.158;2023-04-06T14:58:19;15.30;34.70
71188;DHT22;58893;53.130;8.158;2023-04-06T15:00:45;15.30;34.40
71188;DHT22;58893;53.130;8.158;2023-04-06T15:03:11;15.30;34.00
71188;DHT22;58893;53.130;8.158;2023-04-06T15:05:36;15.30;33.80
71188;DHT22;58893;53.130;8.158;2023-04-06T15:08:02;15.30;33.60
71188;DHT22;58893;53.130;8.158;2023-04-06T15:10:31;15.30;33.80
71188;DHT22;58893;53.130;8.158;2023-04-06T15:12:57;15.30;34.40
71188;DHT22;58893;53.130;8.158;2023-04-06T15:15:22;15.30;34.40
71188;DHT22;58893;53.130;8.158;2023-04-06T15:17:48;15.30;34.50
71188;DHT22;58893;53.130;8.158;2023-04-06T15:20:13;15.30;35.00
71188;DHT22;58893;53.130;8.158;2023-04-06T15:22:39;15.30;35.20
71188;DHT22;58893;53.130;8.158;2023-04-06T15:25:05;15.20;35.20
71188;DHT22;58893;53.130;8.158;2023-04-06T15:27:31;15.20;35.10
71188;DHT22;58893;53.130;8.158;2023-04-06T15:29:57;15.20;35.30
71188;DHT22;58893;53.130;8.158;2023-04-06T15:32:24;15.10;36.30
71188;DHT22;58893;53.130;8.158;2023-04-06T15:34:50;15.10;35.20
71188;DHT22;58893;53.130;8.158;2023-04-06T15:37:16;15.10;35.10
71188;DHT22;58893;53.130;8.158;2023-04-06T15:39:42;15.10;34.90
71188;DHT22;58893;53.130;8.158;2023-04-06T15:42:08;15.10;34.50
71188;DHT22;58893;53.130;8.158;2023-04-06T15:44:34;15.00;34.20
71188;DHT22;58893;53.130;8.158;2023-04-06T15:46:59;15.00;34.20
71188;DHT22;58893;53.130;8.158;2023-04-06T15:49:25;15.00;34.40